Time;durP1;ratioP1;P1;durP2;ratioP2;P2;SDS_P1;SDS_P2;PMS_P1;PMS_P2;Temp;Humidity;BMP_temperature;BMP_pressure;BME280_temperature;BME280_humidity;BME280_pressure;Samples;Min_cycle;Max_cycle;Signal;HPM_P1;HPM_P2
2022/05/26 00:01:21;;;;;;;58.67;34.45;;;;;;;17.08;100.00;97133.41;5022432;28;20065;-65
2022/05/26 00:03:49;;;;;;;55.60;32.75;;;;;;;16.92;100.00;97114.34;5007072;28;20132;-64
2022/05/26 00:06:19;;;;;;;58.20;33.20;;;;;;;17.08;100.00;97127.81;5019525;28;20120;-64
2022/05/26 00:08:46;;;;;;;53.70;32.47;;;;;;;17.05;100.00;97123.06;5027056;28;20483;-64
2022/05/26 00:11:19;;;;;;;55.17;31.25;;;;;;;16.91;100.00;97123.94;5026866;28;20057;-64
2022/05/26 00:13:46;;;;;;;54.05;30.88;;;;;;;16.85;100.00;97127.59;5027092;28;20452;-64
2022/05/26 00:16:13;;;;;;;51.00;32.38;;;;;;;16.87;100.00;97133.56;5026545;28;20516;-65
2022/05/26 00:18:40;;;;;;;62.30;34.13;;;;;;;16.85;100.00;97125.56;5026607;28;20126;-64
2022/05/26 00:21:07;;;;;;;49.13;30.98;;;;;;;16.59;100.00;97098.97;5026767;28;20498;-65
2022/05/26 00:23:34;;;;;;;56.08;32.88;;;;;;;16.73;100.00;97111.25;5026768;28;20045;-63
2022/05/26 00:26:01;;;;;;;61.22;33.80;;;;;;;16.85;100.00;97127.59;5026543;28;20049;-64
2022/05/26 00:28:28;;;;;;;54.13;31.75;;;;;;;16.52;100.00;97076.63;5025136;28;20045;-63
2022/05/26 00:30:54;;;;;;;56.42;31.17;;;;;;;16.36;100.00;97034.34;5026532;28;20519;-64
2022/05/26 00:33:21;;;;;;;56.05;33.15;;;;;;;16.85;100.00;97124.78;5026594;28;20137;-64
2022/05/26 00:35:49;;;;;;;54.50;31.83;;;;;;;16.70;100.00;97101.69;5024938;28;20049;-64
2022/05/26 00:38:17;;;;;;;55.75;31.77;;;;;;;16.52;100.00;97090.59;5025079;28;20064;-65
2022/05/26 00:40:45;;;;;;;54.13;31.98;;;;;;;16.74;100.00;97110.06;5026174;28;20539;-65
2022/05/26 00:43:12;;;;;;;49.30;29.85;;;;;;;16.69;100.00;97113.28;5015916;28;20050;-64
2022/05/26 00:45:40;;;;;;;51.63;31.02;;;;;;;16.67;100.00;97112.91;5006932;28;20455;-64
2022/05/26 00:48:13;;;;;;;56.83;32.28;;;;;;;16.63;100.00;97113.72;5006933;28;20046;-65
2022/05/26 00:50:50;;;;;;;53.42;32.45;;;;;;;16.63;100.00;97100.94;5006648;28;20072;-65
2022/05/26 00:53:38;;;;;;;55.80;31.70;;;;;;;16.59;100.00;97107.34;5006591;28;20058;-64
2022/05/26 00:56:16;;;;;;;54.97;32.90;;;;;;;16.52;100.00;97107.38;5006900;28;20061;-64
2022/05/26 00:58:48;;;;;;;55.25;33.00;;;;;;;16.50;100.00;97104.19;5004682;28;20516;-64
2022/05/26 01:01:15;;;;;;;59.60;34.58;;;;;;;15.79;100.00;96991.09;5021743;28;20046;-63
2022/05/26 01:03:57;;;;;;;59.70;33.33;;;;;;;16.52;100.00;97106.56;5004789;28;20046;-65
2022/05/26 01:06:35;;;;;;;60.38;33.90;;;;;;;16.58;100.00;97102.94;5005751;28;20066;-65
2022/05/26 01:09:05;;;;;;;56.42;33.58;;;;;;;16.35;100.00;97097.06;5004615;28;20436;-63
2022/05/26 01:11:37;;;;;;;54.35;33.10;;;;;;;16.57;100.00;97094.97;5005918;28;20050;-65
2022/05/26 01:14:14;;;;;;;53.03;32.72;;;;;;;16.59;100.00;97090.56;5005958;28;20046;-66
2022/05/26 01:16:56;;;;;;;54.33;33.10;;;;;;;16.55;100.00;97112.16;5006026;28;20081;-64
2022/05/26 01:20:01;;;;;;;57.35;32.88;;;;;;;16.55;100.00;97105.75;5005564;28;20061;-65
2022/05/26 01:22:40;;;;;;;53.13;32.17;;;;;;;16.54;100.00;97098.59;4962224;28;20173;-64
2022/05/26 01:25:28;;;;;;;56.40;33.00;;;;;;;16.49;100.00;97094.22;5005757;28;20550;-64
2022/05/26 01:28:26;;;;;;;59.45;33.38;;;;;;;16.48;100.00;97095.44;5005839;28;20054;-64
2022/05/26 01:31:04;;;;;;;55.97;33.35;;;;;;;16.46;100.00;97097.84;5005755;28;20057;-64
2022/05/26 01:33:57;;;;;;;53.53;32.33;;;;;;;16.44;100.00;97083.47;5006016;28;20054;-65
2022/05/26 01:36:38;;;;;;;53.08;31.63;;;;;;;16.43;100.00;97098.63;4975316;28;20073;-64
2022/05/26 01:39:29;;;;;;;53.00;30.08;;;;;;;16.33;100.00;97093.06;5004240;28;20076;-65
2022/05/26 01:42:13;;;;;;;54.08;32.47;;;;;;;16.39;100.00;97086.63;5005367;28;20116;-64
2022/05/26 01:45:03;;;;;;;51.72;31.63;;;;;;;16.33;100.00;97081.88;5005387;28;20069;-63
2022/05/26 01:47:35;;;;;;;53.70;30.83;;;;;;;16.30;100.00;97075.13;5005744;28;20065;-63
2022/05/26 01:50:12;;;;;;;48.67;31.33;;;;;;;16.08;100.00;97037.28;5005156;28;20058;-64
2022/05/26 01:53:01;;;;;;;54.38;31.55;;;;;;;16.26;100.00;97074.34;5003812;28;20068;-63
2022/05/26 01:55:41;;;;;;;57.38;32.42;;;;;;;16.25;100.00;97091.50;4993036;28;20053;-64
2022/05/26 01:58:15;;;;;;;52.33;31.90;;;;;;;16.24;100.00;97085.13;5005217;28;20050;-63
2022/05/26 02:00:42;;;;;;;61.65;34.65;;;;;;;16.27;100.00;97070.34;5004682;28;20049;-64
2022/05/26 02:03:13;;;;;;;57.70;31.98;;;;;;;16.30;100.00;97077.91;5019689;28;20505;-63
2022/05/26 02:05:47;;;;;;;52.60;32.53;;;;;;;16.24;100.00;97073.94;5004922;28;20124;-64
2022/05/26 02:08:22;;;;;;;58.67;33.85;;;;;;;16.01;100.00;97047.69;5005191;28;20050;-64
2022/05/26 02:10:59;;;;;;;52.85;30.70;;;;;;;16.19;100.00;97082.75;5004849;28;20061;-64
2022/05/26 02:13:35;;;;;;;54.35;32.53;;;;;;;16.06;100.00;97075.22;5019451;28;20113;-63
2022/05/26 02:16:12;;;;;;;49.15;30.73;;;;;;;16.03;100.00;97078.81;5006529;28;20057;-64
2022/05/26 02:18:50;;;;;;;54.53;31.35;;;;;;;16.07;100.00;97086.00;5003675;28;20081;-64
2022/05/26 02:21:43;;;;;;;51.92;31.05;;;;;;;16.11;100.00;97092.38;5004111;28;20500;-65
2022/05/26 02:24:19;;;;;;;54.60;30.98;;;;;;;16.04;100.00;97103.59;5019510;28;20092;-64
2022/05/26 02:26:46;;;;;;;57.88;31.65;;;;;;;16.00;100.00;97086.00;5004614;28;20057;-64
2022/05/26 02:31:58;;;;;;;59.22;32.80;;;;;;;15.99;100.00;97062.09;5004234;28;20053;-64
2022/05/26 02:34:25;;;;;;;55.72;32.10;;;;;;;16.09;100.00;97078.00;4984770;28;20519;-65
2022/05/26 02:36:56;;;;;;;53.92;31.92;;;;;;;15.92;100.00;97067.69;5023376;28;20046;-65
2022/05/26 02:39:23;;;;;;;57.85;32.47;;;;;;;16.04;100.00;97081.22;5038973;28;20049;-64
2022/05/26 02:41:53;;;;;;;56.05;32.15;;;;;;;15.92;100.00;97038.94;5023708;28;20512;-65
2022/05/26 02:44:21;;;;;;;50.13;31.05;;;;;;;16.15;100.00;97081.97;5022425;28;20591;-64
2022/05/26 02:47:09;;;;;;;48.92;32.05;;;;;;;16.01;100.00;97076.41;5022323;28;20053;-64
2022/05/26 02:49:41;;;;;;;58.25;34.53;;;;;;;16.00;100.00;97074.84;5024086;28;20057;-64
2022/05/26 02:52:37;;;;;;;55.95;32.47;;;;;;;15.91;100.00;97082.88;5023431;28;20049;-66
2022/05/26 02:55:22;;;;;;;49.97;31.42;;;;;;;15.89;100.00;97079.66;5023928;28;20129;-64
2022/05/26 02:58:21;;;;;;;56.67;31.33;;;;;;;15.88;100.00;97083.69;5023786;28;20060;-63
2022/05/26 03:01:26;;;;;;;56.78;30.45;;;;;;;15.96;100.00;97084.44;5038462;28;20064;-64
2022/05/26 03:04:05;;;;;;;;;;;;;;;16.04;100.00;97086.81;5022711;28;20512;-64
2022/05/26 03:06:35;;;;;;;53.55;30.42;;;;;;;16.06;100.00;97084.38;5024003;28;20395;-64
2022/05/26 03:09:06;;;;;;;56.50;32.42;;;;;;;15.93;100.00;97062.91;5023539;28;20072;-65
2022/05/26 03:11:50;;;;;;;51.42;31.38;;;;;;;16.10;100.00;97071.22;5023572;28;20064;-64
2022/05/26 03:14:19;;;;;;;59.25;32.53;;;;;;;16.01;100.00;97076.41;5022488;28;20053;-64
2022/05/26 03:16:45;;;;;;;61.83;34.30;;;;;;;14.13;100.00;96813.34;5023849;28;20057;-64
2022/05/26 03:19:12;;;;;;;59.08;34.90;;;;;;;16.01;100.00;97065.25;5022605;28;20429;-64
2022/05/26 03:21:40;;;;;;;56.30;31.77;;;;;;;16.03;100.00;97071.22;5024084;28;20049;-64
2022/05/26 03:24:08;;;;;;;56.05;31.45;;;;;;;15.73;100.00;97015.06;5023090;28;20062;-64
2022/05/26 03:26:35;;;;;;;52.22;29.85;;;;;;;15.87;100.00;97051.34;5022967;28;20254;-65
2022/05/26 03:29:03;;;;;;;58.58;33.30;;;;;;;16.19;100.00;97077.16;5023274;28;20049;-64
2022/05/26 03:31:30;;;;;;;45.42;29.67;;;;;;;16.21;100.00;97074.75;5024054;28;20471;-64
2022/05/26 03:42:17;;;;;;;52.55;29.58;;;;;;;16.37;100.00;97072.28;5027471;28;20050;-64
2022/05/26 03:44:44;;;;;;;44.83;27.35;;;;;;;16.16;100.00;97027.66;5042395;28;20068;-64
2022/05/26 03:47:11;;;;;;;49.53;28.65;;;;;;;16.49;100.00;97063.47;5027069;28;20535;-64
2022/05/26 03:49:37;;;;;;;45.45;26.88;;;;;;;16.66;100.00;97078.53;5027183;28;20053;-64
2022/05/26 03:52:05;;;;;;;47.85;28.13;;;;;;;16.17;100.00;96980.97;5027272;28;20061;-64
2022/05/26 03:54:33;;;;;;;51.45;29.38;;;;;;;16.82;100.00;97075.25;5025324;28;20056;-65
2022/05/26 03:57:00;;;;;;;47.55;29.13;;;;;;;16.92;100.00;97068.75;5027117;28;20056;-65
2022/05/26 03:59:26;;;;;;;44.70;28.58;;;;;;;17.10;100.00;97081.44;5027349;28;20567;-64
2022/05/26 04:01:53;;;;;;;40.55;25.67;;;;;;;17.15;100.00;97077.41;5027059;28;20063;-65
2022/05/26 04:04:20;;;;;;;48.42;27.48;;;;;;;17.26;100.00;97086.50;5027102;28;20575;-64
2022/05/26 04:06:48;;;;;;;42.40;26.20;;;;;;;16.98;100.00;97020.34;5026913;28;20130;-65
2022/05/26 04:09:15;;;;;;;39.03;24.95;;;;;;;17.35;100.00;97104.44;5026903;28;20127;-64
2022/05/26 04:11:42;;;;;;;43.10;25.83;;;;;;;17.38;100.00;97085.97;5026582;28;20060;-65
2022/05/26 04:14:09;;;;;;;44.28;27.42;;;;;;;17.23;100.00;97053.72;5026829;28;20057;-64
2022/05/26 04:16:36;;;;;;;47.38;27.23;;;;;;;17.68;100.00;97105.75;5026513;28;20057;-64
2022/05/26 04:19:03;;;;;;;44.83;26.95;;;;;;;17.65;100.00;97089.75;5026940;28;20084;-64
2022/05/26 04:21:29;;;;;;;48.10;26.92;;;;;;;17.68;100.00;97083.31;5026575;28;20557;-64
2022/05/26 04:23:56;;;;;;;46.58;25.73;;;;;;;17.60;100.00;97104.22;5025728;28;20052;-64
2022/05/26 04:26:23;;;;;;;46.20;26.65;;;;;;;17.32;100.00;97098.84;5026419;28;20358;-64
2022/05/26 04:28:50;;;;;;;48.88;29.50;;;;;;;17.43;100.00;97063.94;5026338;28;20504;-64
2022/05/26 04:31:17;;;;;;;50.63;28.30;;;;;;;17.76;100.00;97102.47;5026842;28;20060;-65
2022/05/26 04:33:45;;;;;;;48.80;27.83;;;;;;;17.98;100.00;97108.63;5026555;28;20050;-64
2022/05/26 04:36:12;;;;;;;46.20;27.48;;;;;;;17.88;100.00;97068.28;5026685;28;20050;-64
2022/05/26 04:38:39;;;;;;;43.80;27.67;;;;;;;17.95;100.00;97045.00;5026337;28;20057;-64
2022/05/26 04:41:07;;;;;;;47.92;26.77;;;;;;;18.51;99.80;97103.19;5024718;28;20061;-64
2022/05/26 04:43:34;;;;;;;43.78;25.80;;;;;;;18.61;98.68;97085.44;5025809;28;20057;-63
2022/05/26 04:46:04;;;;;;;50.67;30.13;;;;;;;18.57;99.96;97056.66;5026771;28;20650;-64
2022/05/26 04:48:31;;;;;;;50.08;29.05;;;;;;;16.45;98.61;96738.31;5026775;28;20136;-64
2022/05/26 04:50:57;;;;;;;54.55;27.52;;;;;;;17.82;100.00;97041.94;5026536;28;20595;-64
2022/05/26 04:53:24;;;;;;;52.28;29.38;;;;;;;18.74;100.00;97111.72;5024902;28;20114;-64
2022/05/26 04:55:54;;;;;;;45.78;27.73;;;;;;;18.76;100.00;97114.88;5026358;28;20153;-65
2022/05/26 04:58:21;;;;;;;51.47;29.13;;;;;;;19.18;100.00;97119.09;5026374;28;20053;-61
2022/05/26 05:00:48;;;;;;;50.63;29.00;;;;;;;19.47;98.27;97121.03;5026380;28;20049;-60
2022/05/26 05:03:15;;;;;;;51.58;28.90;;;;;;;19.78;96.16;97109.69;5026284;28;20516;-63
2022/05/26 05:05:41;;;;;;;45.58;27.23;;;;;;;20.16;94.42;97116.63;5024615;28;20784;-63
2022/05/26 05:08:08;;;;;;;45.40;27.13;;;;;;;20.43;90.72;97122.91;5026051;28;20053;-66
2022/05/26 05:10:35;;;;;;;44.80;26.08;;;;;;;20.30;89.16;97060.06;5030036;28;20057;-62
2022/05/26 05:13:02;;;;;;;41.97;25.63;;;;;;;20.39;87.44;97080.00;5025717;28;20064;-62
2022/05/26 05:15:36;;;;;;;40.85;26.83;;;;;;;20.75;87.67;97092.84;5024143;28;20068;-62
2022/05/26 05:18:03;;;;;;;42.60;24.58;;;;;;;21.29;85.69;97127.09;5026076;28;20065;-63
2022/05/26 05:20:32;;;;;;;40.60;25.20;;;;;;;21.59;84.93;97129.53;5026067;28;20458;-63
2022/05/26 05:23:04;;;;;;;46.05;25.45;;;;;;;21.76;83.78;97131.19;5025500;28;20061;-63
2022/05/26 05:25:38;;;;;;;39.20;25.27;;;;;;;21.96;82.27;97123.38;5024093;28;20049;-61
2022/05/26 05:28:29;;;;;;;39.60;28.05;;;;;;;21.74;82.76;97113.88;5021421;28;20041;-60
2022/05/26 05:31:10;;;;;;;48.67;27.73;;;;;;;21.84;83.36;97106.41;5023360;28;20476;-61
2022/05/26 05:33:44;;;;;;;42.35;27.98;;;;;;;21.87;82.34;97091.41;5014269;28;20140;-62
2022/05/26 05:36:23;;;;;;;43.45;28.33;;;;;;;22.41;82.61;97141.09;5040261;28;20076;-60
2022/05/26 05:38:49;;;;;;;48.20;29.48;;;;;;;22.76;81.26;97144.97;5040236;28;20080;-68
2022/05/26 05:41:16;;;;;;;42.53;29.08;;;;;;;22.78;80.97;97117.06;5024876;28;20061;-60
2022/05/26 05:43:43;;;;;;;41.30;28.65;;;;;;;23.29;80.02;97143.38;5040060;28;20069;-63
2022/05/26 05:46:11;;;;;;;43.92;27.92;;;;;;;23.24;78.78;97101.50;5025074;28;20065;-63
2022/05/26 05:48:38;;;;;;;48.17;29.77;;;;;;;23.35;78.47;97097.13;5024978;28;20077;-61
2022/05/26 05:51:05;;;;;;;43.60;29.13;;;;;;;23.26;76.53;97053.81;5039433;28;20049;-66
2022/05/26 05:53:31;;;;;;;44.28;28.60;;;;;;;23.66;77.47;97142.59;5056497;28;20061;-60
2022/05/26 05:55:58;;;;;;;44.50;27.90;;;;;;;24.03;76.28;97136.09;5023937;28;20144;-60
2022/05/26 05:58:25;;;;;;;45.65;29.77;;;;;;;23.84;75.21;97142.78;5024755;28;20447;-60
2022/05/26 06:00:52;;;;;;;45.55;28.77;;;;;;;24.12;73.56;97150.34;5024789;28;20061;-61
2022/05/26 06:03:18;;;;;;;45.67;29.42;;;;;;;24.40;73.35;97143.69;5039569;28;20060;-59
2022/05/26 06:05:45;;;;;;;41.47;28.95;;;;;;;24.80;70.94;97138.97;5023029;28;20531;-61
2022/05/26 06:08:12;;;;;;;46.05;29.63;;;;;;;25.06;67.99;97162.28;5024913;28;20052;-62
2022/05/26 06:10:38;;;;;;;39.33;26.52;;;;;;;25.12;66.25;97113.03;5023787;28;20512;-63
2022/05/26 06:13:05;;;;;;;37.60;28.50;;;;;;;25.60;65.75;97150.47;5024731;28;20053;-59
2022/05/26 06:15:33;;;;;;;34.80;25.05;;;;;;;25.68;65.25;97151.75;5023684;28;20057;-64
2022/05/26 06:18:00;;;;;;;33.33;26.48;;;;;;;25.36;64.99;97089.84;5023116;28;20053;-59
2022/05/26 06:20:27;;;;;;;40.17;27.02;;;;;;;25.20;66.88;97097.31;5024334;28;20474;-67
2022/05/26 06:22:54;;;;;;;38.33;24.33;;;;;;;24.60;68.46;97157.53;5039319;28;20523;-62
2022/05/26 06:25:21;;;;;;;36.22;25.58;;;;;;;23.05;69.26;96862.31;5024109;28;20056;-61
2022/05/26 06:30:33;;;;;;;34.90;25.92;;;;;;;25.53;65.84;97077.78;5021805;28;20455;-65
2022/05/26 06:38:41;;;;;;;37.17;26.50;;;;;;;24.06;71.12;96956.84;5003700;28;20155;-63
2022/05/26 06:43:58;;;;;;;41.13;26.65;;;;;;;25.50;69.22;97106.31;5003010;28;20241;-60
2022/05/26 06:46:25;;;;;;;36.08;27.20;;;;;;;25.92;68.53;97125.19;5004388;28;20061;-63
2022/05/26 06:48:52;;;;;;;32.83;24.10;;;;;;;26.22;65.12;97129.22;5003878;28;20061;-59
2022/05/26 06:51:19;;;;;;;35.33;25.40;;;;;;;25.55;68.71;97136.88;5003443;28;20050;-61
2022/05/26 06:53:46;;;;;;;37.03;27.10;;;;;;;25.53;69.70;97133.75;5003798;28;20046;-59
2022/05/26 06:56:13;;;;;;;33.47;26.73;;;;;;;25.93;68.34;97134.50;5002219;28;20050;-59
2022/05/26 06:58:40;;;;;;;40.17;26.88;;;;;;;25.48;70.00;97103.16;5003583;28;20049;-61
2022/05/26 07:01:16;;;;;;;29.77;22.13;;;;;;;25.29;69.78;97125.72;5002393;28;20060;-61
2022/05/26 07:03:43;;;;;;;41.50;26.20;;;;;;;25.14;70.11;97107.69;5035103;28;20058;-61
2022/05/26 07:06:21;;;;;;;29.13;22.30;;;;;;;25.34;66.32;97115.06;5003614;28;20188;-58
2022/05/26 07:08:49;;;;;;;48.17;28.58;;;;;;;25.73;67.05;97142.63;4984198;28;20065;-64
2022/05/26 07:11:17;;;;;;;50.70;29.13;;;;;;;24.07;66.37;96797.13;5001297;28;20635;-63
2022/05/26 07:13:44;;;;;;;31.80;21.48;;;;;;;26.80;61.77;97138.41;5003555;28;20410;-60
2022/05/26 07:16:11;;;;;;;32.05;20.45;;;;;;;27.10;59.83;97140.25;5003282;28;20068;-59
2022/05/26 07:18:40;;;;;;;40.85;24.90;;;;;;;27.23;59.53;97152.22;5003677;28;20163;-65
2022/05/26 07:21:09;;;;;;;28.58;20.10;;;;;;;27.12;59.21;97149.09;5003761;28;20049;-59
2022/05/26 07:23:36;;;;;;;33.83;21.30;;;;;;;26.91;58.07;97076.16;5004043;28;20046;-60
2022/05/26 07:26:06;;;;;;;28.33;20.70;;;;;;;27.54;57.23;97137.75;5003309;28;20050;-63
2022/05/26 07:28:34;;;;;;;27.58;18.55;;;;;;;27.78;55.49;97136.56;5003345;28;20054;-62
2022/05/26 07:31:01;;;;;;;59.42;33.15;;;;;;;28.03;56.37;97143.88;5001141;28;20046;-63
2022/05/26 07:33:28;;;;;;;47.17;25.40;;;;;;;27.90;55.50;97104.22;5003345;28;20068;-60
2022/05/26 07:35:54;;;;;;;27.13;19.90;;;;;;;28.45;53.81;97109.56;5018129;28;20413;-61
2022/05/26 07:41:17;;;;;;;24.08;16.55;;;;;;;28.88;54.62;97154.53;5003661;28;20501;-62
2022/05/26 07:43:47;;;;;;;20.30;14.48;;;;;;;28.75;50.06;97122.63;5003717;28;20083;-59
2022/05/26 07:46:21;;;;;;;22.02;14.57;;;;;;;28.85;48.43;97116.34;5002001;28;20376;-62
2022/05/26 07:48:49;;;;;;;17.08;13.82;;;;;;;29.23;48.33;97144.03;5033981;28;20115;-64
2022/05/26 07:51:19;;;;;;;22.98;14.02;;;;;;;29.33;47.42;97156.94;5003001;28;20053;-62
2022/05/26 07:53:46;;;;;;;19.75;13.50;;;;;;;29.55;46.69;97151.63;4999223;28;20058;-63
2022/05/26 07:56:13;;;;;;;19.05;13.20;;;;;;;29.70;45.77;97151.63;5004735;28;20090;-62
2022/05/26 07:58:40;;;;;;;16.17;12.70;;;;;;;29.85;46.22;97147.47;4998062;28;20046;-63
2022/05/26 08:01:07;;;;;;;20.65;12.68;;;;;;;30.13;45.11;97151.50;5017990;28;20057;-62
2022/05/26 08:03:34;;;;;;;18.77;13.48;;;;;;;30.14;45.66;97158.81;5003438;28;20120;-64
2022/05/26 08:06:01;;;;;;;16.15;13.07;;;;;;;30.41;44.95;97151.94;5001600;28;20064;-65
2022/05/26 08:08:31;;;;;;;19.33;13.55;;;;;;;30.23;44.43;97146.47;5034678;28;20460;-63
2022/05/26 08:10:58;;;;;;;20.10;13.05;;;;;;;30.50;43.94;97164.03;5002333;28;20055;-66
2022/05/26 08:13:25;;;;;;;25.20;14.18;;;;;;;29.62;44.04;96990.50;5004004;28;20298;-62
2022/05/26 08:15:52;;;;;;;18.85;13.50;;;;;;;30.90;43.26;97164.00;5015759;28;20065;-65
2022/05/26 08:18:19;;;;;;;21.20;13.23;;;;;;;30.97;42.13;97139.13;5004263;28;20054;-64
2022/05/26 08:20:46;;;;;;;22.08;13.77;;;;;;;31.17;42.38;97130.50;5006792;28;20053;-65
2022/05/26 08:23:22;;;;;;;24.90;13.43;;;;;;;31.47;42.62;97154.75;4992042;28;20053;-62
2022/05/26 08:25:49;;;;;;;16.15;12.70;;;;;;;31.38;40.64;97166.41;5025642;28;20045;-60
2022/05/26 08:28:15;;;;;;;15.10;11.77;;;;;;;30.99;41.07;97171.66;5025356;28;20059;-61
2022/05/26 08:30:42;;;;;;;15.75;10.27;;;;;;;30.71;40.61;97177.03;5025607;28;20066;-68
2022/05/26 08:33:09;;;;;;;14.93;10.07;;;;;;;30.70;39.80;97183.25;5025192;28;20497;-60
2022/05/26 08:35:36;;;;;;;11.27;9.70;;;;;;;30.52;36.30;97144.31;5025471;28;20061;-61
2022/05/26 08:38:02;;;;;;;9.90;8.85;;;;;;;30.75;35.36;97180.47;5025533;28;20057;-61
2022/05/26 08:40:37;;;;;;;12.35;9.23;;;;;;;30.87;36.18;97170.75;5023996;28;20057;-60
2022/05/26 08:43:05;;;;;;;12.65;9.75;;;;;;;30.65;36.26;97181.88;5040380;28;20395;-60
2022/05/26 08:45:36;;;;;;;10.57;9.23;;;;;;;30.32;36.76;97178.59;5024888;28;20084;-63
2022/05/26 08:48:04;;;;;;;12.75;8.70;;;;;;;30.39;36.65;97178.19;5025598;28;20061;-65
2022/05/26 08:50:34;;;;;;;12.15;9.35;;;;;;;30.45;37.73;97173.31;5040687;28;20060;-63
2022/05/26 08:53:08;;;;;;;22.95;10.02;;;;;;;30.39;38.01;97186.75;5012652;28;20076;-61
2022/05/26 08:55:48;;;;;;;13.30;10.50;;;;;;;30.52;38.99;97180.69;5040343;28;20535;-65
2022/05/26 08:58:27;;;;;;;12.35;10.27;;;;;;;30.52;38.85;97178.63;5026254;28;20115;-67
2022/05/26 09:00:54;;;;;;;15.18;9.60;;;;;;;30.08;38.58;97160.03;5025332;28;20523;-66
2022/05/26 09:03:25;;;;;;;10.73;9.63;;;;;;;30.32;39.09;97187.16;5025221;28;20500;-58
2022/05/26 09:06:04;;;;;;;15.07;10.57;;;;;;;30.17;38.79;97197.84;5023767;28;20413;-66
2022/05/26 09:14:32;;;;;;;13.27;11.77;;;;;;;29.98;38.43;97147.94;5025034;28;20526;-65
2022/05/26 09:17:13;;;;;;;13.23;10.50;;;;;;;30.08;37.31;97182.88;5025339;28;20064;-59
2022/05/26 09:19:43;;;;;;;10.82;9.77;;;;;;;30.39;37.95;97181.03;5025287;28;20061;-66
2022/05/26 09:22:41;;;;;;;18.25;10.55;;;;;;;30.50;37.05;97191.81;5023681;28;20065;-66
2022/05/26 09:25:29;;;;;;;12.35;10.18;;;;;;;30.47;37.71;97182.19;5023750;28;20068;-66
2022/05/26 09:27:56;;;;;;;11.00;9.93;;;;;;;30.39;37.94;97192.47;5025222;28;20428;-60
2022/05/26 09:30:29;;;;;;;15.98;10.07;;;;;;;30.44;37.67;97159.53;5039604;28;20049;-60
2022/05/26 09:32:56;;;;;;;14.68;10.90;;;;;;;30.97;36.98;97187.78;5040417;28;20076;-60
2022/05/26 09:35:32;;;;;;;14.43;9.85;;;;;;;30.27;35.82;97067.78;5025076;28;20057;-66
2022/05/26 09:38:02;;;;;;;13.60;9.63;;;;;;;30.88;35.57;97189.50;5024897;28;20583;-66
2022/05/26 09:40:37;;;;;;;12.23;9.82;;;;;;;30.66;35.75;97120.56;5024117;28;20045;-66
2022/05/26 09:43:08;;;;;;;11.75;9.55;;;;;;;31.35;36.19;97182.50;5025126;28;20108;-59
2022/05/26 09:45:44;;;;;;;13.65;9.60;;;;;;;31.26;35.50;97176.13;5024538;28;20140;-66
2022/05/26 09:48:27;;;;;;;11.50;10.10;;;;;;;31.48;35.61;97185.75;5024980;28;20129;-66
2022/05/26 09:51:20;;;;;;;19.17;10.40;;;;;;;31.64;35.25;97187.19;5024927;28;20561;-66
2022/05/26 09:53:48;;;;;;;11.10;10.00;;;;;;;31.87;34.94;97188.97;5024618;28;20057;-65
2022/05/26 09:56:36;;;;;;;11.45;10.35;;;;;;;31.82;34.88;97176.16;5039353;28;20531;-68
2022/05/26 09:59:25;;;;;;;15.15;9.85;;;;;;;31.98;35.08;97189.09;5024453;28;20061;-66
2022/05/26 10:02:18;;;;;;;11.45;9.50;;;;;;;32.13;34.87;97189.72;5024388;28;20057;-66
2022/05/26 10:04:59;;;;;;;14.30;9.77;;;;;;;32.12;35.22;97182.41;5025438;28;20448;-65
2022/05/26 10:07:39;;;;;;;10.88;9.60;;;;;;;32.13;35.08;97190.50;5024538;28;20050;-68
2022/05/26 10:10:28;;;;;;;11.15;9.98;;;;;;;32.15;33.68;97184.25;5022502;28;20053;-61
2022/05/26 10:13:11;;;;;;;12.13;9.70;;;;;;;32.12;34.00;97183.19;5024580;28;20053;-66
2022/05/26 10:15:40;;;;;;;11.27;10.10;;;;;;;32.21;33.68;97185.06;5024292;28;20061;-66
2022/05/26 10:18:14;;;;;;;14.25;9.27;;;;;;;32.13;33.27;97143.84;5024600;28;20065;-61
2022/05/26 10:20:43;;;;;;;14.68;10.52;;;;;;;32.65;33.41;97182.50;5023047;28;20053;-60
2022/05/26 10:23:29;;;;;;;13.52;9.88;;;;;;;32.56;33.93;97194.19;5022499;28;20068;-62
2022/05/26 10:26:07;;;;;;;14.40;10.95;;;;;;;32.68;33.51;97183.53;5024291;28;20041;-59
2022/05/26 10:29:19;;;;;;;12.55;9.50;;;;;;;32.74;33.05;97188.00;5039648;28;20046;-67
2022/05/26 10:32:03;;;;;;;15.77;9.52;;;;;;;32.68;33.06;97189.28;5011798;28;20057;-65
2022/05/26 10:34:35;;;;;;;10.63;9.32;;;;;;;32.67;34.51;97187.72;5024739;28;20064;-60
2022/05/26 10:37:17;;;;;;;15.75;11.10;;;;;;;32.50;34.22;97201.97;5024271;28;20068;-61
2022/05/26 10:39:59;;;;;;;14.27;10.95;;;;;;;32.25;34.53;97194.22;5039131;28;20057;-65
2022/05/26 10:42:31;;;;;;;11.32;9.82;;;;;;;32.52;35.16;97187.88;5023509;28;20060;-61
2022/05/26 10:45:20;;;;;;;11.70;10.48;;;;;;;32.66;33.18;97177.53;5023741;28;20056;-64
2022/05/26 10:48:19;;;;;;;10.68;9.57;;;;;;;32.64;33.75;97178.06;5023899;28;20140;-67
2022/05/26 10:51:05;;;;;;;10.80;9.70;;;;;;;32.54;33.24;97178.78;5022709;28;20443;-62
2022/05/26 10:53:50;;;;;;;15.68;10.43;;;;;;;32.74;32.68;97176.53;5023782;28;20495;-66
2022/05/26 10:56:38;;;;;;;12.73;8.93;;;;;;;32.51;31.89;97180.59;5023719;28;20053;-67
2022/05/26 10:59:27;;;;;;;13.05;9.65;;;;;;;32.61;32.42;97173.34;5023602;28;20050;-67
2022/05/26 11:01:58;;;;;;;12.70;9.45;;;;;;;32.66;32.36;97172.56;5038603;28;20049;-66
2022/05/26 11:04:56;;;;;;;11.10;10.10;;;;;;;32.32;32.83;97167.94;5038531;28;20045;-66
2022/05/26 11:07:30;;;;;;;11.95;9.73;;;;;;;32.42;32.30;97177.16;5024038;28;20068;-66
2022/05/26 11:10:23;;;;;;;9.88;8.82;;;;;;;32.46;31.75;97163.34;5038746;28;20091;-66
2022/05/26 11:13:05;;;;;;;10.50;8.00;;;;;;;32.04;30.60;97124.75;5038576;28;20049;-65
2022/05/26 11:18:50;;;;;;;9.82;8.73;;;;;;;32.42;31.40;97149.25;5023611;28;20054;-66
2022/05/26 11:21:21;;;;;;;10.65;8.88;;;;;;;32.10;31.51;97156.34;5021877;28;20053;-61
2022/05/26 11:23:49;;;;;;;16.15;9.32;;;;;;;31.41;32.45;97128.91;5023870;28;20065;-61
2022/05/26 11:26:21;;;;;;;10.07;8.95;;;;;;;31.97;32.00;97165.38;5023520;28;20095;-66
2022/05/26 11:28:57;;;;;;;10.43;8.02;;;;;;;32.13;32.59;97172.50;5023564;28;20053;-61
2022/05/26 11:37:36;;;;;;;9.70;8.70;;;;;;;32.29;31.18;97168.97;5022662;28;20045;-65
2022/05/26 11:40:13;;;;;;;12.05;9.40;;;;;;;32.08;31.45;97115.91;5021390;28;20495;-65
2022/05/26 11:42:45;;;;;;;12.75;8.15;;;;;;;32.39;30.18;97156.00;5022685;28;20057;-65
2022/05/26 11:45:18;;;;;;;9.45;8.27;;;;;;;32.62;30.00;97151.16;5022533;28;20137;-65
2022/05/26 11:48:00;;;;;;;8.90;7.72;;;;;;;32.74;29.57;97159.31;4997717;28;20045;-59
2022/05/26 11:50:47;;;;;;;8.93;8.15;;;;;;;32.75;30.10;97146.53;5019280;28;20928;-60
2022/05/26 11:53:35;;;;;;;8.27;7.32;;;;;;;32.68;30.23;97143.34;5022786;28;20131;-57
2022/05/26 11:56:04;;;;;;;12.25;7.88;;;;;;;32.45;30.53;97125.28;5017442;28;20444;-60
2022/05/26 11:58:44;;;;;;;9.07;7.03;;;;;;;32.39;32.10;97138.78;5008048;28;20622;-59
2022/05/26 12:01:19;;;;;;;15.02;8.48;;;;;;;32.45;33.26;97133.88;5018548;28;20050;-57
2022/05/26 12:03:53;;;;;;;10.68;7.75;;;;;;;32.44;31.75;97138.03;5022139;28;20054;-61
2022/05/26 12:06:38;;;;;;;10.80;7.68;;;;;;;32.37;33.75;97141.41;5006262;28;20050;-63
2022/05/26 12:09:11;;;;;;;15.93;8.35;;;;;;;31.95;34.16;97127.03;5006645;28;20053;-65
2022/05/26 12:11:53;;;;;;;;;;;;;;;31.86;33.94;97135.84;5012237;28;20058;-61
2022/05/26 12:14:30;;;;;;;9.43;7.88;;;;;;;31.77;34.70;97136.00;5018585;28;19924;-64
2022/05/26 12:17:32;;;;;;;9.30;8.40;;;;;;;31.42;35.52;97118.25;5023705;28;20060;-66
2022/05/26 12:20:11;;;;;;;10.77;8.60;;;;;;;32.04;34.49;97123.97;5023596;28;20128;-67
2022/05/26 12:22:41;;;;;;;10.13;8.02;;;;;;;30.84;34.18;97028.69;5025307;28;20057;-62
2022/05/26 12:25:20;;;;;;;9.52;8.63;;;;;;;31.74;34.53;97114.88;5039497;28;20048;-59